Putnam, Oklahoma
Current Conditions -  °F | °C
As of 6:15 PM on Friday 24 Oct 2014 (Local Time) from KCLK Reporting Station
Clear Clear  
Wind Chill: 81°   Ceiling: Unl
Heat Index: 81°   Visibility: 10mi
Dew Point: 55°   Wind: 5mph
Humidity: 42%   Direction: 220°SW
Pressure: 30.03"   Gusts: NA
Location:  35.86°N, 98.97°W
Report Text: KCLK 242315Z AUTO 22004KT 10SM CLR 27/13 A3003 RMK AO2
Loading
Personal Weather Stations






























Interactive Weather Map
Tropical Storm Tracking
New forecast layout! Learn more

10-Day Weather Forecast

Advertisements
Track Severe Weather on mobile